createdAt,value
2023-02-11T00:02:16.731Z,33.13
2023-02-11T00:04:43.705Z,33.63
2023-02-11T00:07:10.638Z,30.47
2023-02-11T00:09:37.932Z,31.17
2023-02-11T00:12:05.004Z,35.30
2023-02-11T00:14:32.381Z,32.60
2023-02-11T00:16:59.300Z,24.87
2023-02-11T00:19:26.339Z,33.47
2023-02-11T00:21:53.252Z,36.30
2023-02-11T00:24:20.175Z,33.00
2023-02-11T00:26:47.110Z,32.67
2023-02-11T00:29:14.046Z,31.30
2023-02-11T00:31:41.561Z,34.70
2023-02-11T00:34:08.658Z,34.13
2023-02-11T00:36:35.420Z,34.47
2023-02-11T00:39:02.374Z,31.73
2023-02-11T00:41:29.566Z,32.53
2023-02-11T00:43:56.555Z,33.60
2023-02-11T00:46:23.292Z,34.70
2023-02-11T00:48:51.052Z,35.27
2023-02-11T00:51:17.984Z,35.40
2023-02-11T00:53:44.961Z,31.43
2023-02-11T00:56:11.861Z,33.77
2023-02-11T00:58:38.962Z,31.67
2023-02-11T01:01:05.943Z,32.60
2023-02-11T01:03:32.991Z,32.83
2023-02-11T01:06:00.327Z,33.87
2023-02-11T01:08:26.983Z,31.73
2023-02-11T01:10:55.367Z,37.03
2023-02-11T01:13:22.610Z,33.17
2023-02-11T01:15:50.021Z,31.93
2023-02-11T01:18:17.219Z,32.80
2023-02-11T01:20:44.156Z,30.30
2023-02-11T01:23:11.786Z,32.43
2023-02-11T01:25:38.840Z,30.90
2023-02-11T01:28:05.808Z,33.43
2023-02-11T01:30:32.830Z,33.67
2023-02-11T01:32:59.730Z,31.53
2023-02-11T01:35:26.667Z,31.90
2023-02-11T01:37:53.617Z,33.87
2023-02-11T01:40:20.890Z,33.40
2023-02-11T01:42:50.649Z,32.50
2023-02-11T01:45:55.275Z,32.20
2023-02-11T01:48:26.634Z,29.97
2023-02-11T01:51:00.895Z,33.53
2023-02-11T01:53:46.200Z,32.63
2023-02-11T01:56:33.114Z,30.87
2023-02-11T01:59:04.656Z,33.10
2023-02-11T02:01:33.882Z,33.43
2023-02-11T02:04:02.886Z,29.73
2023-02-11T02:06:34.412Z,28.03
2023-02-11T02:09:05.807Z,32.67
2023-02-11T02:11:33.188Z,33.73
2023-02-11T02:14:00.169Z,31.10
2023-02-11T02:16:31.483Z,32.70
2023-02-11T02:19:18.122Z,27.40
2023-02-11T02:22:05.766Z,31.90
2023-02-11T02:24:57.073Z,33.77
2023-02-11T02:27:41.863Z,27.47
2023-02-11T02:30:47.913Z,32.87
2023-02-11T02:33:29.141Z,32.77
2023-02-11T02:36:06.488Z,34.43
2023-02-11T02:38:37.532Z,22.07
2023-02-11T02:41:08.254Z,34.27
2023-02-11T02:43:37.104Z,31.30
2023-02-11T02:46:11.980Z,28.70
2023-02-11T02:48:39.426Z,31.27
2023-02-11T02:51:15.025Z,30.70
2023-02-11T02:53:52.615Z,34.60
2023-02-11T02:56:26.873Z,33.87
2023-02-11T02:59:09.206Z,37.80
2023-02-11T03:01:46.378Z,34.50
2023-02-11T03:04:21.187Z,35.27
2023-02-11T03:06:53.513Z,34.43
2023-02-11T03:09:25.791Z,31.03
2023-02-11T03:11:53.038Z,32.13
2023-02-11T03:14:21.856Z,35.53
2023-02-11T03:16:50.127Z,33.30
2023-02-11T03:19:20.720Z,34.57
2023-02-11T03:21:51.437Z,37.07
2023-02-11T03:24:24.086Z,32.40
2023-02-11T03:26:53.444Z,32.03
2023-02-11T03:29:35.126Z,37.03
2023-02-11T03:32:08.776Z,37.10
2023-02-11T03:34:43.409Z,35.47
2023-02-11T03:37:13.172Z,37.47
2023-02-11T03:39:44.156Z,39.03
2023-02-11T03:42:14.252Z,37.00
2023-02-11T03:44:45.376Z,37.67
2023-02-11T03:47:15.188Z,35.07
2023-02-11T03:49:45.121Z,35.90
2023-02-11T03:52:12.303Z,32.17
2023-02-11T03:54:41.801Z,36.73
2023-02-11T03:57:09.027Z,34.53
2023-02-11T03:59:51.007Z,34.80
2023-02-11T04:02:18.012Z,35.80
2023-02-11T04:04:46.393Z,36.50
2023-02-11T04:07:13.425Z,37.43
2023-02-11T04:09:40.373Z,28.83
2023-02-11T04:12:07.720Z,30.70
2023-02-11T04:14:34.741Z,37.50
2023-02-11T04:17:02.117Z,35.77
2023-02-11T04:19:29.023Z,37.83
2023-02-11T04:21:56.616Z,37.83
2023-02-11T04:24:23.630Z,35.83
2023-02-11T04:26:50.640Z,38.97
2023-02-11T04:29:17.564Z,38.33
2023-02-11T04:31:44.503Z,35.50
2023-02-11T04:34:11.466Z,37.57
2023-02-11T04:36:38.396Z,38.87
2023-02-11T04:39:05.777Z,36.43
2023-02-11T04:41:32.689Z,41.93
2023-02-11T04:43:59.654Z,38.93
2023-02-11T04:46:26.423Z,26.43
2023-02-11T04:48:53.384Z,40.30
2023-02-11T04:51:20.407Z,28.13
2023-02-11T04:53:47.322Z,39.33
2023-02-11T04:56:14.716Z,41.17
2023-02-11T04:58:41.666Z,42.87
2023-02-11T05:01:08.751Z,39.33
2023-02-11T05:03:35.850Z,42.63
2023-02-11T05:06:03.114Z,43.37
2023-02-11T05:08:30.058Z,43.67
2023-02-11T05:10:57.180Z,42.67
2023-02-11T05:13:24.674Z,40.70
2023-02-11T05:15:51.882Z,40.97
2023-02-11T05:18:19.050Z,40.27
2023-02-11T05:20:45.987Z,41.43
2023-02-11T05:23:12.910Z,43.57
2023-02-11T05:25:40.028Z,44.73
2023-02-11T05:28:07.094Z,42.27
2023-02-11T05:30:34.444Z,40.87
2023-02-11T05:33:01.365Z,43.97
2023-02-11T05:35:28.341Z,42.10
2023-02-11T05:37:55.267Z,45.57
2023-02-11T05:40:21.896Z,41.90
2023-02-11T05:42:48.846Z,47.63
2023-02-11T05:45:15.861Z,42.80
2023-02-11T05:47:43.216Z,42.93
2023-02-11T05:50:10.366Z,45.63
2023-02-11T05:52:37.295Z,40.10
2023-02-11T05:55:04.846Z,46.57
2023-02-11T05:57:31.812Z,46.60
2023-02-11T05:59:58.743Z,33.70
2023-02-11T06:02:25.504Z,47.20
2023-02-11T06:04:52.830Z,48.93
2023-02-11T06:07:19.764Z,47.23
2023-02-11T06:09:46.821Z,41.70
2023-02-11T06:12:13.483Z,47.50
2023-02-11T06:14:40.467Z,44.70
2023-02-11T06:17:07.404Z,45.27
2023-02-11T06:19:34.327Z,46.20
2023-02-11T06:22:01.723Z,40.43
2023-02-11T06:24:54.665Z,50.60
2023-02-11T06:27:15.602Z,49.80
2023-02-11T06:29:42.499Z,51.73
2023-02-11T06:32:23.328Z,41.10
2023-02-11T06:34:56.362Z,39.37
2023-02-11T06:37:23.689Z,52.37
2023-02-11T06:39:50.652Z,45.83
2023-02-11T06:42:17.568Z,50.20
2023-02-11T06:44:44.510Z,42.33
2023-02-11T06:47:11.442Z,50.53
2023-02-11T06:49:38.397Z,46.60
2023-02-11T06:52:05.494Z,41.73
2023-02-11T06:54:32.780Z,52.63
2023-02-11T06:56:59.399Z,45.87
2023-02-11T06:59:26.413Z,50.80
2023-02-11T07:01:53.386Z,47.57
2023-02-11T07:04:20.068Z,50.00
2023-02-11T07:06:47.035Z,53.97
2023-02-11T07:09:13.805Z,55.57
2023-02-11T07:11:41.158Z,51.07
2023-02-11T07:14:09.907Z,38.13
2023-02-11T07:16:36.831Z,54.60
2023-02-11T07:19:03.821Z,52.10
2023-02-11T07:21:30.822Z,54.30
2023-02-11T07:23:57.779Z,53.27
2023-02-11T07:26:25.472Z,54.30
2023-02-11T07:28:53.061Z,53.10
2023-02-11T07:31:21.971Z,49.63
2023-02-11T07:33:48.948Z,54.30
2023-02-11T07:36:16.522Z,50.67
2023-02-11T07:38:43.509Z,50.77
2023-02-11T07:41:11.846Z,51.43
2023-02-11T07:43:40.092Z,40.07
2023-02-11T07:46:10.524Z,40.33
2023-02-11T07:48:37.569Z,54.90
2023-02-11T07:51:08.818Z,53.80
2023-02-11T07:53:35.796Z,50.67
2023-02-11T07:56:03.622Z,53.60
2023-02-11T07:58:30.589Z,49.77
2023-02-11T08:01:01.116Z,52.93
2023-02-11T08:03:28.705Z,48.63
2023-02-11T08:05:55.798Z,49.43
2023-02-11T08:08:22.748Z,45.00
2023-02-11T08:10:50.033Z,51.73
2023-02-11T08:13:17.149Z,29.23
2023-02-11T08:15:43.758Z,53.13
2023-02-11T08:18:10.722Z,47.43
2023-02-11T08:20:38.103Z,45.60
2023-02-11T08:23:06.083Z,48.27
2023-02-11T08:25:32.987Z,51.13
2023-02-11T08:27:59.972Z,42.07
2023-02-11T08:30:27.631Z,30.47
2023-02-11T08:32:54.684Z,42.47
2023-02-11T08:35:21.606Z,45.23
2023-02-11T08:37:48.929Z,46.23
2023-02-11T08:40:15.962Z,46.47
2023-02-11T08:42:42.911Z,50.33
2023-02-11T08:45:10.177Z,51.67
2023-02-11T08:47:36.867Z,41.13
2023-02-11T08:50:03.981Z,39.77
2023-02-11T08:52:31.033Z,26.93
2023-02-11T08:54:58.487Z,41.13
2023-02-11T08:57:25.591Z,34.80
2023-02-11T08:59:52.627Z,47.20
2023-02-11T09:02:19.672Z,39.67
2023-02-11T09:04:46.626Z,43.73
2023-02-11T09:07:13.552Z,41.17
2023-02-11T09:09:40.511Z,33.57
2023-02-11T09:12:07.944Z,40.07
2023-02-11T09:14:34.906Z,43.97
2023-02-11T09:17:02.972Z,40.03
2023-02-11T09:19:29.985Z,44.20
2023-02-11T09:21:57.102Z,42.90
2023-02-11T09:24:24.141Z,40.40
2023-02-11T09:26:50.848Z,47.77
2023-02-11T09:29:18.173Z,47.47
2023-02-11T09:31:45.371Z,42.50
2023-02-11T09:34:12.726Z,45.13
2023-02-11T09:36:40.332Z,36.23
2023-02-11T09:39:09.631Z,31.70
2023-02-11T09:41:48.857Z,45.63
2023-02-11T09:44:20.250Z,42.23
2023-02-11T09:47:00.380Z,36.03
2023-02-11T09:49:34.612Z,32.80
2023-02-11T09:52:06.138Z,45.00
2023-02-11T09:54:37.056Z,44.33
2023-02-11T09:57:05.633Z,45.30
2023-02-11T09:59:33.492Z,43.10
2023-02-11T10:02:04.497Z,43.80
2023-02-11T10:04:48.831Z,44.33
2023-02-11T10:07:24.970Z,37.20
2023-02-11T10:10:10.353Z,44.77
2023-02-11T10:13:06.156Z,38.90
2023-02-11T10:15:42.242Z,41.30
2023-02-11T10:18:24.942Z,40.70
2023-02-11T10:21:05.631Z,41.27
2023-02-11T10:23:36.117Z,40.77
2023-02-11T10:26:03.103Z,44.57
2023-02-11T10:28:33.034Z,31.03
2023-02-11T10:31:02.853Z,42.47
2023-02-11T10:33:33.961Z,42.03
2023-02-11T10:36:00.883Z,42.83
2023-02-11T10:38:28.120Z,43.60
2023-02-11T10:40:55.091Z,39.80
2023-02-11T10:43:26.838Z,23.20
2023-02-11T10:45:55.604Z,37.70
2023-02-11T10:48:44.455Z,43.90
2023-02-11T10:51:18.882Z,43.60
2023-02-11T10:53:46.811Z,37.47
2023-02-11T10:56:21.800Z,42.40
2023-02-11T10:58:56.563Z,38.03
2023-02-11T11:01:25.044Z,39.87
2023-02-11T11:03:53.447Z,37.37
2023-02-11T11:06:31.258Z,23.87
2023-02-11T11:08:58.331Z,41.33
2023-02-11T11:11:26.031Z,31.87
2023-02-11T11:13:58.701Z,43.27
2023-02-11T11:16:27.440Z,41.17
2023-02-11T11:19:16.503Z,39.93
2023-02-11T11:21:44.929Z,37.10
2023-02-11T11:24:17.695Z,38.83
2023-02-11T11:26:46.002Z,34.70
2023-02-11T11:29:15.842Z,39.53
2023-02-11T11:31:48.786Z,39.80
2023-02-11T11:34:23.012Z,38.80
2023-02-11T11:36:50.162Z,38.43
2023-02-11T11:39:25.823Z,37.13
2023-02-11T11:41:55.557Z,37.60
2023-02-11T11:44:27.057Z,39.07
2023-02-11T11:47:18.854Z,35.90
2023-02-11T11:49:53.869Z,32.50
2023-02-11T11:52:35.204Z,35.50
2023-02-11T11:55:09.360Z,32.63
2023-02-11T11:57:38.493Z,30.57
2023-02-11T12:00:13.928Z,29.33
2023-02-11T12:03:03.462Z,32.50
2023-02-11T12:05:37.294Z,33.93
2023-02-11T12:08:15.396Z,25.33
2023-02-11T12:10:58.077Z,33.13
2023-02-11T12:13:40.740Z,32.87
2023-02-11T12:16:16.915Z,32.30
2023-02-11T12:19:10.753Z,31.87
2023-02-11T12:21:45.189Z,30.00
2023-02-11T12:24:28.698Z,25.30
2023-02-11T12:27:01.191Z,30.33
2023-02-11T12:29:35.561Z,32.70
2023-02-11T12:32:15.416Z,30.23
2023-02-11T12:35:06.173Z,30.93
2023-02-11T12:37:48.106Z,28.43
2023-02-11T12:40:21.162Z,28.70
2023-02-11T12:43:18.115Z,29.43
2023-02-11T12:46:21.820Z,27.97
2023-02-11T12:49:16.359Z,27.03
2023-02-11T12:52:04.715Z,26.70
2023-02-11T12:54:39.497Z,26.23
2023-02-11T12:57:13.337Z,21.77
2023-02-11T12:59:45.437Z,27.67
2023-02-11T13:02:21.329Z,24.17
2023-02-11T13:04:51.932Z,26.23
2023-02-11T13:07:24.845Z,26.53
2023-02-11T13:09:59.144Z,26.67
2023-02-11T13:12:47.504Z,25.93
2023-02-11T13:15:15.240Z,27.03
2023-02-11T13:17:52.449Z,27.80
2023-02-11T13:20:32.602Z,27.70
2023-02-11T13:23:05.351Z,29.80
2023-02-11T13:25:38.774Z,27.97
2023-02-11T13:28:21.109Z,28.70
2023-02-11T13:30:56.789Z,26.00
2023-02-11T13:33:35.010Z,27.43
2023-02-11T13:36:16.062Z,28.57
2023-02-11T13:38:52.922Z,29.20
2023-02-11T13:41:26.726Z,30.57
2023-02-11T13:44:23.247Z,32.13
2023-02-11T13:46:56.541Z,32.83
2023-02-11T13:49:27.257Z,30.03
2023-02-11T13:51:55.302Z,30.23
2023-02-11T13:54:27.124Z,30.27
2023-02-11T13:57:21.875Z,30.23
2023-02-11T13:59:50.211Z,31.23
2023-02-11T14:02:42.551Z,29.60
2023-02-11T14:05:47.922Z,27.77
2023-02-11T14:08:42.100Z,29.70
2023-02-11T14:11:43.730Z,28.43
2023-02-11T14:14:17.667Z,29.93
2023-02-11T14:17:20.741Z,27.47
2023-02-11T14:19:49.057Z,29.10
2023-02-11T14:22:19.350Z,28.27
2023-02-11T14:24:51.085Z,27.30
2023-02-11T14:27:25.330Z,29.07
2023-02-11T14:30:18.358Z,26.23
2023-02-11T14:33:00.050Z,26.03
2023-02-11T14:35:35.595Z,26.43
2023-02-11T14:38:09.460Z,24.03
2023-02-11T14:40:46.191Z,24.83
2023-02-11T14:43:17.297Z,27.70
2023-02-11T14:45:49.618Z,24.90
2023-02-11T14:48:18.210Z,24.03
2023-02-11T14:50:47.886Z,20.67
2023-02-11T14:53:16.933Z,21.60
2023-02-11T14:55:47.072Z,20.67
2023-02-11T14:58:16.941Z,22.73
2023-02-11T15:00:53.648Z,24.50
2023-02-11T15:03:29.532Z,20.03
2023-02-11T15:05:58.657Z,25.17
2023-02-11T15:08:26.054Z,21.93
2023-02-11T15:10:54.719Z,22.00
2023-02-11T15:13:26.391Z,22.30
2023-02-11T15:15:57.759Z,16.17
2023-02-11T15:18:32.832Z,21.00
2023-02-11T15:21:00.260Z,21.97
2023-02-11T15:23:29.384Z,19.57
2023-02-11T15:25:56.080Z,18.43
2023-02-11T15:28:25.108Z,17.30
2023-02-11T15:31:00.778Z,17.53
2023-02-11T15:33:29.919Z,17.83
2023-02-11T15:35:57.020Z,14.83
2023-02-11T15:38:24.267Z,15.63
2023-02-11T15:40:53.836Z,14.97
2023-02-11T15:43:21.043Z,15.27
2023-02-11T15:46:00.774Z,16.63
2023-02-11T15:48:36.641Z,16.00
2023-02-11T15:51:12.724Z,13.20
2023-02-11T15:53:42.540Z,13.27
2023-02-11T15:56:15.404Z,14.30
2023-02-11T15:58:45.295Z,14.10
2023-02-11T16:01:13.037Z,12.73
2023-02-11T16:03:41.876Z,15.60
2023-02-11T16:06:20.650Z,14.83
2023-02-11T16:08:58.764Z,14.57
2023-02-11T16:11:29.997Z,16.57
2023-02-11T16:13:59.290Z,16.70
2023-02-11T16:16:30.252Z,14.90
2023-02-11T16:19:04.601Z,16.13
2023-02-11T16:21:35.680Z,17.03
2023-02-11T16:24:03.282Z,15.07
2023-02-11T16:26:33.744Z,14.20
2023-02-11T16:29:10.927Z,16.33
2023-02-11T16:31:41.005Z,16.10
2023-02-11T16:34:15.767Z,16.50
2023-02-11T16:36:42.687Z,16.57
2023-02-11T16:39:10.880Z,15.63
2023-02-11T16:41:37.768Z,17.37
2023-02-11T16:44:04.735Z,16.33
2023-02-11T16:46:32.157Z,14.97
2023-02-11T16:49:08.208Z,16.17
2023-02-11T16:51:34.887Z,14.63
2023-02-11T16:54:01.539Z,13.90
2023-02-11T16:56:28.395Z,14.67
2023-02-11T16:58:55.042Z,15.60
2023-02-11T17:01:21.928Z,14.10
2023-02-11T17:03:49.313Z,12.57
2023-02-11T17:06:16.678Z,13.03
2023-02-11T17:08:43.740Z,11.73
2023-02-11T17:11:10.350Z,10.83
2023-02-11T17:13:38.730Z,12.13
2023-02-11T17:16:05.547Z,13.67
2023-02-11T17:18:33.143Z,13.50
2023-02-11T17:21:00.643Z,12.70
2023-02-11T17:23:27.923Z,13.43
2023-02-11T17:25:57.366Z,12.10
2023-02-11T17:28:24.364Z,12.07
2023-02-11T17:30:51.098Z,12.33
2023-02-11T17:33:18.720Z,13.50
2023-02-11T17:35:45.413Z,10.40
2023-02-11T17:38:12.076Z,11.40
2023-02-11T17:40:39.628Z,11.00
2023-02-11T17:43:06.332Z,11.73
2023-02-11T17:45:33.054Z,11.70
2023-02-11T17:47:59.842Z,11.37
2023-02-11T17:50:29.164Z,11.70
2023-02-11T17:52:56.719Z,12.87
2023-02-11T17:55:23.399Z,11.47
2023-02-11T17:57:50.749Z,12.07
2023-02-11T18:00:18.368Z,11.63
2023-02-11T18:02:45.028Z,10.50
2023-02-11T18:05:11.714Z,12.37
2023-02-11T18:07:38.399Z,11.40
2023-02-11T18:10:06.533Z,11.17
2023-02-11T18:12:33.230Z,11.20
2023-02-11T18:15:00.547Z,12.03
2023-02-11T18:17:27.494Z,12.20
2023-02-11T18:19:55.571Z,12.10
2023-02-11T18:22:23.078Z,11.73
2023-02-11T18:24:51.625Z,11.13
2023-02-11T18:27:18.556Z,11.47
2023-02-11T18:29:45.211Z,10.90
2023-02-11T18:32:12.628Z,11.77
2023-02-11T18:34:40.043Z,10.27
2023-02-11T18:37:06.985Z,9.97
2023-02-11T18:39:33.657Z,10.03
2023-02-11T18:42:00.346Z,9.90
2023-02-11T18:44:27.328Z,10.50
2023-02-11T18:46:54.013Z,10.03
2023-02-11T18:49:21.416Z,11.37
2023-02-11T18:51:48.146Z,9.87
2023-02-11T18:54:14.828Z,10.63
2023-02-11T18:56:41.969Z,10.13
2023-02-11T18:59:08.935Z,10.13
2023-02-11T19:01:35.834Z,9.47
2023-02-11T19:04:04.355Z,10.57
2023-02-11T19:06:33.783Z,9.77
2023-02-11T19:09:02.716Z,10.63
2023-02-11T19:11:46.718Z,9.07
2023-02-11T19:14:14.415Z,9.23
2023-02-11T19:16:43.630Z,8.43
2023-02-11T19:19:10.404Z,9.47
2023-02-11T19:21:37.730Z,10.83
2023-02-11T19:24:06.913Z,9.83
2023-02-11T19:26:34.030Z,10.03
2023-02-11T19:29:01.076Z,10.10
2023-02-11T19:31:31.289Z,9.67
2023-02-11T19:33:58.129Z,10.40
2023-02-11T19:36:24.910Z,7.37
2023-02-11T19:38:52.251Z,11.27
2023-02-11T19:41:21.480Z,10.20
2023-02-11T19:43:52.085Z,12.07
2023-02-11T19:46:20.293Z,10.43
2023-02-11T19:48:48.017Z,11.07
2023-02-11T19:51:15.481Z,11.37
2023-02-11T19:53:43.001Z,10.77
2023-02-11T19:56:12.003Z,11.83
2023-02-11T19:58:39.892Z,12.00
2023-02-11T20:01:07.771Z,12.40
2023-02-11T20:03:35.108Z,12.93
2023-02-11T20:06:05.321Z,12.47
2023-02-11T20:08:32.766Z,12.83
2023-02-11T20:11:05.179Z,13.10
2023-02-11T20:13:33.398Z,13.50
2023-02-11T20:16:06.988Z,12.87
2023-02-11T20:18:34.431Z,12.53
2023-02-11T20:21:06.668Z,12.20
2023-02-11T20:23:33.655Z,10.83
2023-02-11T20:26:05.305Z,11.80
2023-02-11T20:28:32.690Z,12.73
2023-02-11T20:30:59.765Z,13.53
2023-02-11T20:33:27.773Z,12.43
2023-02-11T20:35:55.896Z,11.37
2023-02-11T20:38:22.956Z,10.33
2023-02-11T20:40:49.734Z,11.00
2023-02-11T20:43:16.993Z,11.73
2023-02-11T20:45:44.379Z,10.27
2023-02-11T20:48:11.146Z,12.83
2023-02-11T20:50:37.911Z,10.63
2023-02-11T20:53:05.135Z,10.83
2023-02-11T20:55:35.866Z,11.43
2023-02-11T20:58:02.838Z,10.60
2023-02-11T21:00:30.302Z,11.90
2023-02-11T21:02:57.674Z,11.17
2023-02-11T21:05:24.590Z,10.77
2023-02-11T21:07:52.848Z,10.83
2023-02-11T21:10:19.735Z,10.63
2023-02-11T21:12:49.541Z,10.57
2023-02-11T21:15:16.849Z,10.43
2023-02-11T21:17:43.737Z,11.13
2023-02-11T21:20:11.631Z,9.03
2023-02-11T21:22:38.272Z,9.23
2023-02-11T21:25:06.462Z,9.03
2023-02-11T21:27:33.661Z,10.63
2023-02-11T21:30:00.752Z,9.27
2023-02-11T21:32:27.851Z,9.70
2023-02-11T21:34:54.575Z,10.27
2023-02-11T21:37:22.539Z,9.53
2023-02-11T21:39:49.260Z,9.47
2023-02-11T21:42:16.104Z,10.10
2023-02-11T21:44:43.227Z,9.63
2023-02-11T21:47:09.915Z,8.73
2023-02-11T21:49:37.058Z,9.73
2023-02-11T21:52:04.122Z,9.17
2023-02-11T21:54:32.164Z,9.57
2023-02-11T21:57:02.184Z,9.43
2023-02-11T21:59:30.830Z,9.00
2023-02-11T22:01:58.391Z,8.07
2023-02-11T22:04:25.295Z,9.60
2023-02-11T22:06:52.590Z,9.27
2023-02-11T22:09:19.316Z,10.33
2023-02-11T22:11:48.482Z,9.20
2023-02-11T22:14:15.747Z,9.53
2023-02-11T22:16:44.525Z,8.83
2023-02-11T22:19:11.231Z,9.33
2023-02-11T22:21:38.037Z,8.73
2023-02-11T22:24:05.500Z,10.23
2023-02-11T22:26:32.225Z,9.30
2023-02-11T22:28:59.462Z,8.23
2023-02-11T22:31:27.893Z,8.90
2023-02-11T22:33:55.002Z,10.70
2023-02-11T22:36:23.626Z,8.57
2023-02-11T22:38:50.607Z,8.57
2023-02-11T22:41:18.142Z,8.60
2023-02-11T22:43:45.050Z,9.07
2023-02-11T22:46:14.132Z,9.30
2023-02-11T22:48:40.813Z,9.70
2023-02-11T22:51:09.726Z,10.60
2023-02-11T22:53:36.533Z,10.77
2023-02-11T22:56:04.395Z,10.20
2023-02-11T22:58:31.427Z,10.97
2023-02-11T23:00:58.021Z,11.97
2023-02-11T23:03:25.615Z,10.33
2023-02-11T23:05:52.660Z,10.50
2023-02-11T23:08:19.447Z,10.37
2023-02-11T23:10:46.413Z,9.73
2023-02-11T23:13:14.464Z,10.77
2023-02-11T23:15:42.226Z,10.50
2023-02-11T23:18:10.035Z,10.40
2023-02-11T23:20:38.901Z,9.60
2023-02-11T23:23:05.781Z,11.07
2023-02-11T23:25:32.885Z,9.80
2023-02-11T23:28:00.147Z,11.07
2023-02-11T23:30:27.990Z,10.50
2023-02-11T23:32:54.646Z,11.67
2023-02-11T23:35:22.552Z,10.57
2023-02-11T23:37:50.804Z,10.20
2023-02-11T23:40:17.890Z,10.63
2023-02-11T23:42:45.281Z,10.10
2023-02-11T23:45:12.414Z,9.77
2023-02-11T23:47:43.243Z,11.40
2023-02-11T23:50:11.197Z,10.60
2023-02-11T23:52:37.827Z,11.40
2023-02-11T23:55:06.274Z,10.67
2023-02-11T23:57:36.656Z,11.07
